Time;durP1;ratioP1;P1;durP2;ratioP2;P2;SDS_P1;SDS_P2;PMS_P1;PMS_P2;Temp;Humidity;BMP_temperature;BMP_pressure;BME280_temperature;BME280_humidity;BME280_pressure;Samples;Min_cycle;Max_cycle;Signal;HPM_P1;HPM_P2
2022/09/04 00:01:57;;;;;;;4.82;0.90;;;;;;;;;;5038947;28;20056;-70
2022/09/04 00:04:30;;;;;;;2.55;1.00;;;;;;;;;;5050983;28;20059;-70
2022/09/04 00:06:59;;;;;;;5.90;1.40;;;;;;;;;;5049246;28;20110;-70
2022/09/04 00:09:37;;;;;;;3.50;1.38;;;;;;;;;;5051286;28;20040;-70
2022/09/04 00:12:07;;;;;;;1.52;0.88;;;;;;;;;;5048611;28;20108;-70
2022/09/04 00:14:39;;;;;;;2.85;0.70;;;;;;;;;;5048206;28;20032;-70
2022/09/04 00:17:08;;;;;;;7.15;0.80;;;;;;;;;;5034238;28;20029;-70
2022/09/04 00:19:39;;;;;;;2.13;0.70;;;;;;;;;;5054824;28;20044;-70
2022/09/04 00:22:14;;;;;;;9.98;1.13;;;;;;;;;;5049314;28;20028;-70
2022/09/04 00:24:42;;;;;;;6.07;0.73;;;;;;;;;;5058201;28;20697;-70
2022/09/04 00:27:12;;;;;;;4.82;1.00;;;;;;;;;;5049698;28;20033;-71
2022/09/04 00:30:00;;;;;;;1.30;0.82;;;;;;;;;;5052439;28;20353;-71
2022/09/04 00:32:37;;;;;;;5.15;1.30;;;;;;;;;;5041620;28;20048;-70
2022/09/04 00:35:18;;;;;;;2.53;1.20;;;;;;;;;;5049392;28;20043;-71
2022/09/04 00:38:05;;;;;;;1.08;0.80;;;;;;;;;;5042050;28;20457;-70
2022/09/04 00:40:34;;;;;;;4.13;0.80;;;;;;;;;;4992224;28;20059;-70
2022/09/04 00:43:02;;;;;;;2.25;0.90;;;;;;;;;;5047868;28;20082;-70
2022/09/04 00:45:34;;;;;;;3.10;1.20;;;;;;;;;;5031849;28;20020;-70
2022/09/04 00:48:00;;;;;;;;;;;;;;;;;;5039617;28;20542;-70
2022/09/04 00:50:45;;;;;;;2.75;1.20;;;;;;;;;;5048825;28;19944;-69
2022/09/04 00:53:14;;;;;;;2.15;1.17;;;;;;;;;;5030375;28;20025;-70
2022/09/04 00:55:51;;;;;;;6.05;1.25;;;;;;;;;;5050689;28;20033;-71
2022/09/04 00:58:31;;;;;;;3.75;1.00;;;;;;;;;;5030363;28;20037;-69
2022/09/04 01:00:58;;;;;;;2.38;0.82;;;;;;;;;;5032155;28;20033;-72
2022/09/04 01:03:33;;;;;;;4.45;1.10;;;;;;;;;;5049078;28;20044;-70
2022/09/04 01:06:17;;;;;;;7.05;1.17;;;;;;;;;;5053211;28;20033;-70
2022/09/04 01:08:47;;;;;;;4.32;1.00;;;;;;;;;;5048654;28;20033;-70
2022/09/04 01:11:32;;;;;;;10.65;1.23;;;;;;;;;;5048866;28;20398;-70
2022/09/04 01:14:09;;;;;;;2.42;1.05;;;;;;;;;;5038311;28;20025;-70
2022/09/04 01:16:44;;;;;;;6.82;0.80;;;;;;;;;;5050184;28;20033;-70
2022/09/04 01:19:29;;;;;;;1.35;0.82;;;;;;;;;;5043417;28;20029;-71
2022/09/04 01:21:58;;;;;;;3.15;0.88;;;;;;;;;;5057186;28;20028;-70
2022/09/04 01:24:53;;;;;;;3.28;0.88;;;;;;;;;;5046692;28;20057;-71
2022/09/04 01:27:32;;;;;;;2.92;0.80;;;;;;;;;;5033008;28;20048;-70
2022/09/04 01:30:04;;;;;;;3.13;1.45;;;;;;;;;;5049322;28;20040;-70
2022/09/04 01:32:49;;;;;;;3.25;1.08;;;;;;;;;;5050608;28;20060;-70
2022/09/04 01:35:20;;;;;;;2.22;1.17;;;;;;;;;;5031339;28;20115;-71
2022/09/04 01:38:01;;;;;;;2.53;1.30;;;;;;;;;;5051158;28;20067;-70
2022/09/04 01:40:27;;;;;;;2.45;0.95;;;;;;;;;;5043291;28;20041;-71
2022/09/04 01:43:03;;;;;;;2.03;0.90;;;;;;;;;;5050913;28;20033;-71
2022/09/04 01:45:52;;;;;;;4.90;1.38;;;;;;;;;;5048646;28;20372;-71
2022/09/04 01:48:23;;;;;;;7.75;1.35;;;;;;;;;;5021324;28;20548;-70
2022/09/04 01:50:53;;;;;;;3.97;0.88;;;;;;;;;;5044989;28;20028;-71
2022/09/04 01:53:23;;;;;;;1.17;0.90;;;;;;;;;;5046357;28;20037;-70
2022/09/04 01:56:08;;;;;;;1.55;0.93;;;;;;;;;;5058277;28;20037;-70
2022/09/04 01:58:42;;;;;;;1.80;0.93;;;;;;;;;;5049090;28;20036;-71
2022/09/04 02:01:16;;;;;;;8.02;1.35;;;;;;;;;;5051928;28;20063;-70
2022/09/04 02:03:59;;;;;;;6.13;1.20;;;;;;;;;;5054172;28;20500;-71
2022/09/04 02:06:28;;;;;;;1.23;0.77;;;;;;;;;;5051801;28;20060;-70
2022/09/04 02:09:14;;;;;;;3.30;1.08;;;;;;;;;;5057369;28;20035;-71
2022/09/04 02:11:47;;;;;;;4.85;1.10;;;;;;;;;;5053317;28;20585;-70
2022/09/04 02:14:32;;;;;;;3.17;1.05;;;;;;;;;;5061030;28;20104;-69
2022/09/04 02:17:19;;;;;;;3.08;1.05;;;;;;;;;;5054118;28;20033;-71
2022/09/04 02:20:00;;;;;;;3.55;1.20;;;;;;;;;;5047535;28;20502;-70
2022/09/04 02:22:40;;;;;;;1.77;1.15;;;;;;;;;;5050659;28;20040;-70
2022/09/04 02:25:06;;;;;;;2.88;1.25;;;;;;;;;;5052086;28;20020;-71
2022/09/04 02:27:42;;;;;;;10.52;1.08;;;;;;;;;;5048650;28;20086;-69
2022/09/04 02:30:10;;;;;;;3.15;1.00;;;;;;;;;;5062618;28;20697;-71
2022/09/04 02:33:09;;;;;;;4.32;1.08;;;;;;;;;;5049312;28;20041;-69
2022/09/04 02:35:50;;;;;;;6.43;1.73;;;;;;;;;;4997392;28;20041;-71
2022/09/04 02:38:32;;;;;;;5.43;1.40;;;;;;;;;;5053326;28;20033;-73
2022/09/04 02:41:10;;;;;;;6.18;1.23;;;;;;;;;;5039244;28;20037;-73
2022/09/04 02:43:56;;;;;;;4.50;1.70;;;;;;;;;;5051648;28;20028;-73
2022/09/04 02:46:22;;;;;;;2.40;1.10;;;;;;;;;;5049739;28;20025;-73
2022/09/04 02:49:05;;;;;;;5.00;1.00;;;;;;;;;;5051779;28;20362;-73
2022/09/04 02:51:31;;;;;;;4.82;3.25;;;;;;;;;;5052621;28;20484;-71
2022/09/04 02:54:02;;;;;;;5.03;1.38;;;;;;;;;;5053188;28;20032;-72
2022/09/04 02:56:30;;;;;;;3.85;1.13;;;;;;;;;;5050461;28;20099;-71
2022/09/04 02:58:56;;;;;;;2.20;1.17;;;;;;;;;;5053326;28;20033;-71
2022/09/04 03:01:28;;;;;;;3.88;1.00;;;;;;;;;;5045884;28;20033;-70
2022/09/04 03:03:54;;;;;;;;;;;;;;;;;;5058841;28;20032;-71
2022/09/04 03:06:26;;;;;;;2.70;1.00;;;;;;;;;;5026917;28;20333;-71
2022/09/04 03:08:56;;;;;;;3.80;1.40;;;;;;;;;;5053228;28;20037;-71
2022/09/04 03:11:30;;;;;;;4.40;0.88;;;;;;;;;;5050378;28;20037;-71
2022/09/04 03:14:00;;;;;;;1.58;0.93;;;;;;;;;;5052482;28;20036;-71
2022/09/04 03:16:32;;;;;;;5.90;1.33;;;;;;;;;;5049111;28;21667;-72
2022/09/04 03:18:58;;;;;;;7.72;1.35;;;;;;;;;;5049709;28;20044;-71
2022/09/04 03:21:31;;;;;;;4.13;1.30;;;;;;;;;;5049513;28;20496;-71
2022/09/04 03:23:57;;;;;;;9.02;2.65;;;;;;;;;;5063893;28;20488;-71
2022/09/04 03:26:29;;;;;;;3.00;1.30;;;;;;;;;;5033646;28;20030;-71
2022/09/04 03:29:07;;;;;;;1.73;1.00;;;;;;;;;;5049955;28;20060;-71
2022/09/04 03:31:48;;;;;;;2.92;1.10;;;;;;;;;;5050093;28;20086;-72
2022/09/04 03:34:18;;;;;;;2.10;0.88;;;;;;;;;;5052443;28;20107;-71
2022/09/04 03:37:19;;;;;;;3.53;1.50;;;;;;;;;;5043747;28;20115;-71
2022/09/04 03:40:18;;;;;;;5.55;1.35;;;;;;;;;;4975961;28;20601;-71
2022/09/04 03:43:03;;;;;;;6.10;1.23;;;;;;;;;;4991810;28;20033;-71
2022/09/04 03:45:36;;;;;;;1.92;1.13;;;;;;;;;;5041003;28;20037;-71
2022/09/04 03:48:17;;;;;;;5.13;1.42;;;;;;;;;;5041964;28;20033;-71
2022/09/04 03:51:02;;;;;;;6.20;1.55;;;;;;;;;;5049708;28;20027;-71
2022/09/04 03:53:28;;;;;;;7.38;1.40;;;;;;;;;;5048837;28;20041;-71
2022/09/04 03:55:54;;;;;;;3.47;1.30;;;;;;;;;;5053618;28;20037;-71
2022/09/04 03:58:20;;;;;;;3.85;2.15;;;;;;;;;;5051137;28;20029;-71
2022/09/04 04:01:08;;;;;;;4.20;1.63;;;;;;;;;;5049123;28;20036;-71
2022/09/04 04:03:46;;;;;;;6.43;1.10;;;;;;;;;;5033906;28;20036;-71
2022/09/04 04:06:22;;;;;;;3.47;1.20;;;;;;;;;;5034467;28;20033;-72
2022/09/04 04:08:49;;;;;;;5.03;1.50;;;;;;;;;;5046393;28;20036;-71
2022/09/04 04:11:35;;;;;;;5.80;1.52;;;;;;;;;;5055781;28;20024;-71
2022/09/04 04:14:07;;;;;;;5.03;1.40;;;;;;;;;;5030219;28;20052;-72
2022/09/04 04:16:33;;;;;;;3.28;1.42;;;;;;;;;;5045672;28;20113;-72
2022/09/04 04:19:02;;;;;;;7.05;1.42;;;;;;;;;;5049044;28;20079;-71
2022/09/04 04:21:28;;;;;;;3.40;1.80;;;;;;;;;;5049739;28;20025;-71
2022/09/04 04:24:01;;;;;;;6.72;1.67;;;;;;;;;;5048995;28;20048;-72
2022/09/04 04:26:39;;;;;;;3.45;1.38;;;;;;;;;;5030952;28;20538;-71
2022/09/04 04:29:18;;;;;;;3.97;1.33;;;;;;;;;;5045670;28;20060;-71
2022/09/04 04:32:15;;;;;;;2.35;1.42;;;;;;;;;;5038289;28;20060;-75
2022/09/04 04:34:47;;;;;;;3.38;1.60;;;;;;;;;;5029888;28;20037;-72
2022/09/04 04:37:18;;;;;;;5.13;1.63;;;;;;;;;;5030915;28;20037;-71
2022/09/04 04:39:50;;;;;;;2.90;1.15;;;;;;;;;;5029944;28;20112;-71
2022/09/04 04:42:16;;;;;;;;;;;;;;;;;;5031425;28;20026;-71
2022/09/04 04:47:43;;;;;;;4.88;1.45;;;;;;;;;;4983112;28;20034;-71
2022/09/04 04:50:22;;;;;;;4.05;1.23;;;;;;;;;;5003787;28;20029;-71
2022/09/04 04:52:51;;;;;;;2.50;1.30;;;;;;;;;;5030975;28;20030;-71
2022/09/04 04:55:30;;;;;;;6.10;1.50;;;;;;;;;;5029440;28;20021;-71
2022/09/04 04:58:22;;;;;;;3.13;1.48;;;;;;;;;;5001128;28;20026;-72
2022/09/04 05:01:05;;;;;;;5.80;1.52;;;;;;;;;;4999956;28;20053;-71
2022/09/04 05:03:54;;;;;;;3.33;1.65;;;;;;;;;;5028099;28;20022;-71
2022/09/04 05:06:40;;;;;;;5.28;1.40;;;;;;;;;;4993225;28;20044;-72
2022/09/04 05:09:09;;;;;;;3.33;1.27;;;;;;;;;;5015502;28;20095;-72
2022/09/04 05:11:44;;;;;;;5.95;1.60;;;;;;;;;;5026146;28;20074;-72
2022/09/04 05:14:23;;;;;;;4.15;1.70;;;;;;;;;;5029716;28;20104;-71
2022/09/04 05:16:57;;;;;;;5.13;1.73;;;;;;;;;;5023831;28;20039;-73
2022/09/04 05:19:32;;;;;;;4.47;1.77;;;;;;;;;;5031497;28;20032;-71
2022/09/04 05:22:04;;;;;;;7.95;1.33;;;;;;;;;;5030500;28;20041;-71
2022/09/04 05:24:41;;;;;;;10.18;1.88;;;;;;;;;;5029399;28;20021;-72
2022/09/04 05:27:30;;;;;;;5.45;1.70;;;;;;;;;;5023789;28;20080;-72
2022/09/04 05:30:08;;;;;;;4.90;1.63;;;;;;;;;;4991663;28;20081;-72
2022/09/04 05:32:36;;;;;;;2.30;1.30;;;;;;;;;;5023877;28;20068;-71
2022/09/04 05:35:17;;;;;;;2.47;1.38;;;;;;;;;;5040040;28;20028;-71
2022/09/04 05:37:46;;;;;;;3.95;1.60;;;;;;;;;;5030459;28;20493;-71
2022/09/04 05:40:21;;;;;;;3.13;1.55;;;;;;;;;;5034323;28;20096;-70
2022/09/04 05:43:07;;;;;;;3.45;1.63;;;;;;;;;;5008790;28;20033;-70
2022/09/04 05:45:39;;;;;;;3.42;1.50;;;;;;;;;;5017842;28;20037;-70
2022/09/04 05:48:05;;;;;;;3.13;1.85;;;;;;;;;;5033323;28;20034;-70
2022/09/04 05:50:48;;;;;;;2.50;1.45;;;;;;;;;;5029164;28;20056;-72
2022/09/04 05:53:33;;;;;;;7.80;4.85;;;;;;;;;;5024106;28;20021;-71
2022/09/04 05:56:08;;;;;;;8.73;3.75;;;;;;;;;;5036666;28;20051;-70
2022/09/04 05:58:53;;;;;;;8.45;3.95;;;;;;;;;;5041968;28;20038;-69
2022/09/04 06:01:37;;;;;;;3.53;1.73;;;;;;;;;;5032206;28;20075;-69
2022/09/04 06:04:13;;;;;;;2.92;1.70;;;;;;;;;;5034433;28;20021;-69
2022/09/04 06:06:47;;;;;;;4.45;2.05;;;;;;;;;;5031348;28;20040;-69
2022/09/04 06:09:16;;;;;;;3.53;1.83;;;;;;;;;;5027421;28;20033;-70
2022/09/04 06:11:45;;;;;;;4.93;1.98;;;;;;;;;;5040736;28;20044;-71
2022/09/04 06:14:23;;;;;;;5.95;1.77;;;;;;;;;;5033490;28;20048;-71
2022/09/04 06:16:52;;;;;;;5.95;1.55;;;;;;;;;;5031998;28;20061;-71
2022/09/04 06:19:37;;;;;;;2.67;1.58;;;;;;;;;;5032377;28;21687;-70
2022/09/04 06:22:21;;;;;;;4.78;1.40;;;;;;;;;;5039189;28;20436;-71
2022/09/04 06:24:53;;;;;;;2.40;1.30;;;;;;;;;;5046389;28;20407;-70
2022/09/04 06:27:19;;;;;;;4.25;1.85;;;;;;;;;;5023830;28;20087;-70
2022/09/04 06:30:05;;;;;;;7.50;3.50;;;;;;;;;;5040164;28;20028;-69
2022/09/04 06:32:31;;;;;;;4.93;2.42;;;;;;;;;;5015782;28;20408;-70
2022/09/04 06:34:57;;;;;;;8.75;4.10;;;;;;;;;;5047081;28;20089;-69
2022/09/04 06:37:30;;;;;;;8.85;2.72;;;;;;;;;;5048682;28;20063;-76
2022/09/04 06:40:08;;;;;;;3.28;2.00;;;;;;;;;;5050254;28;20063;-79
2022/09/04 06:42:34;;;;;;;3.90;1.80;;;;;;;;;;5051734;28;20029;-78
2022/09/04 06:45:32;;;;;;;6.32;1.67;;;;;;;;;;5052968;28;20116;-77
2022/09/04 06:47:59;;;;;;;8.18;3.47;;;;;;;;;;4996743;28;20392;-79
2022/09/04 06:50:31;;;;;;;9.40;5.80;;;;;;;;;;5048052;28;20098;-79
2022/09/04 06:53:17;;;;;;;7.43;2.67;;;;;;;;;;5043162;28;20490;-71
2022/09/04 06:55:49;;;;;;;3.65;2.03;;;;;;;;;;5049361;28;20054;-69
2022/09/04 06:58:33;;;;;;;3.83;1.42;;;;;;;;;;5050156;28;20030;-70
2022/09/04 07:01:24;;;;;;;4.25;1.88;;;;;;;;;;5030684;28;20062;-69
2022/09/04 07:03:56;;;;;;;3.15;1.48;;;;;;;;;;5010210;28;20051;-69
2022/09/04 07:06:32;;;;;;;3.70;1.88;;;;;;;;;;5047314;28;20017;-69
2022/09/04 07:09:10;;;;;;;4.40;1.58;;;;;;;;;;5049765;28;20041;-71
2022/09/04 07:12:03;;;;;;;3.15;2.30;;;18.10;99.90;;;;;;5045995;28;20045;-70
2022/09/04 07:14:48;;;;;;;4.30;1.77;;;;;;;;;;5051747;28;20033;-69
2022/09/04 07:17:17;;;;;;;3.78;1.70;;;;;;;;;;5045555;28;20040;-72
2022/09/04 07:20:02;;;;;;;3.53;1.77;;;;;;;;;;5036815;28;20076;-72
2022/09/04 07:22:31;;;;;;;5.63;1.45;;;;;;;;;;5040506;28;20051;-74
2022/09/04 07:24:58;;;;;;;3.00;1.58;;;;;;;;;;5045474;28;20082;-70
2022/09/04 07:27:33;;;;;;;5.85;2.00;;;;;;;;;;5051007;28;20025;-70
2022/09/04 07:29:59;;;;;;;12.35;1.95;;;;;;;;;;5048897;28;20040;-69
2022/09/04 07:32:37;;;;;;;2.27;1.17;;;;;;;;;;5009499;28;1139202;-70
2022/09/04 07:35:03;;;;;;;2.97;1.35;;;;;;;;;;5043599;28;20027;-70
2022/09/04 07:37:39;;;;;;;7.47;1.85;;;19.60;99.90;;;;;;5031058;28;20030;-70
2022/09/04 07:40:15;;;;;;;5.05;1.70;;;;;;;;;;5035020;28;20033;-69
2022/09/04 07:42:53;;;;;;;6.53;1.50;;;;;;;;;;5040298;28;21064;-71
2022/09/04 07:45:31;;;;;;;3.63;2.00;;;;;;;;;;5028314;28;20037;-67
2022/09/04 07:48:22;;;;;;;9.60;4.43;;;19.90;99.90;;;;;;5025837;28;20032;-67
2022/09/04 07:51:02;;;;;;;7.00;2.45;;;;;;;;;;5019976;28;20040;-67
2022/09/04 07:53:47;;;;;;;9.38;1.63;;;;;;;;;;5025005;28;20041;-69
2022/09/04 07:56:54;;;;;;;3.30;1.55;;;20.00;99.90;;;;;;5038482;28;20092;-71
2022/09/04 07:59:29;;;;;;;3.75;1.70;;;;;;;;;;5021080;28;20046;-69
2022/09/04 08:01:55;;;;;;;4.80;1.40;;;;;;;;;;5036372;28;20440;-70
2022/09/04 08:04:29;;;;;;;2.92;1.58;;;20.50;99.90;;;;;;5052023;28;20858;-69
2022/09/04 08:07:00;;;;;;;5.38;2.10;;;20.40;99.90;;;;;;5036358;28;20029;-71
2022/09/04 08:09:45;;;;;;;4.55;2.17;;;;;;;;;;5015151;28;20076;-70
2022/09/04 08:12:22;;;;;;;4.65;1.48;;;;;;;;;;5027220;28;20049;-70
2022/09/04 08:14:48;;;;;;;6.35;1.80;;;;;;;;;;5026008;28;20327;-71
2022/09/04 08:17:19;;;;;;;4.55;1.52;;;;;;;;;;5033339;28;20029;-70
2022/09/04 08:20:04;;;;;;;3.00;1.48;;;;;;;;;;5032467;28;20117;-69
2022/09/04 08:22:39;;;;;;;10.68;4.82;;;;;;;;;;5020540;28;20087;-72
2022/09/04 08:25:15;;;;;;;16.35;9.05;;;;;;;;;;5016462;28;20038;-73
2022/09/04 08:28:09;;;;;;;12.00;2.83;;;20.90;99.90;;;;;;5033313;28;20028;-72
2022/09/04 08:30:45;;;;;;;4.78;1.70;;;20.70;99.90;;;;;;5024149;28;20053;-72
2022/09/04 08:33:32;;;;;;;3.85;1.88;;;21.20;99.80;;;;;;5040775;28;20053;-72
2022/09/04 08:36:09;;;;;;;3.45;1.50;;;21.30;99.90;;;;;;5023772;28;20029;-71
2022/09/04 08:38:35;;;;;;;2.40;1.48;;;;;;;;;;5026272;28;20069;-71
2022/09/04 08:41:10;;;;;;;4.70;1.40;;;;;;;;;;5030036;28;20061;-71
2022/09/04 08:43:39;;;;;;;2.88;1.08;;;;;;;;;;5032816;28;20056;-72
2022/09/04 08:46:14;;;;;;;3.88;1.30;;;;;;;;;;5029938;28;20373;-71
2022/09/04 08:48:59;;;;;;;9.70;4.30;;;;;;;;;;5030381;28;20025;-69
2022/09/04 08:51:25;;;;;;;8.63;3.33;;;;;;;;;;5030200;28;20025;-71
2022/09/04 08:54:05;;;;;;;6.10;2.35;;;;;;;;;;5029495;28;20040;-71
2022/09/04 08:56:46;;;;;;;8.63;1.92;;;;;;;;;;5025337;28;20163;-72
2022/09/04 08:59:33;;;;;;;2.03;1.10;;;22.00;98.10;;;;;;5041238;28;20076;-71
2022/09/04 09:02:36;;;;;;;6.35;1.58;;;22.30;97.80;;;;;;5023598;28;20092;-74
2022/09/04 09:05:17;;;;;;;5.35;2.22;;;22.60;97.20;;;;;;5011891;28;20044;-72
2022/09/04 09:07:49;;;;;;;1.60;1.30;;;23.20;96.20;;;;;;5024738;28;20026;-72
2022/09/04 09:10:41;;;;;;;4.68;1.48;;;23.80;94.90;;;;;;5031674;28;20123;-72
2022/09/04 09:13:07;;;;;;;1.67;1.30;;;;;;;;;;5029932;28;20034;-73
2022/09/04 09:15:53;;;;;;;11.23;4.65;;;;;;;;;;5024099;28;20026;-72
2022/09/04 09:18:38;;;;;;;8.50;2.75;;;;;;;;;;4993506;28;20049;-71
2022/09/04 09:21:09;;;;;;;3.90;1.77;;;26.70;90.40;;;;;;5030691;28;20057;-72
2022/09/04 09:23:40;;;;;;;3.42;1.50;;;;;;;;;;5030304;28;20121;-72
2022/09/04 09:26:25;;;;;;;3.72;1.50;;;;;;;;;;5029301;28;20026;-73
2022/09/04 09:29:06;;;;;;;3.25;1.50;;;;;;;;;;5022154;28;20052;-73
2022/09/04 09:31:51;;;;;;;4.43;3.20;;;;;;;;;;5023068;28;20044;-73
2022/09/04 09:34:36;;;;;;;7.18;5.00;;;29.00;88.30;;;;;;5029676;28;20041;-68
2022/09/04 09:37:21;;;;;;;5.57;1.35;;;;;;;;;;5024516;28;20048;-75
2022/09/04 09:40:02;;;;;;;4.65;1.40;;;;;;;;;;5024640;28;20042;-71
2022/09/04 09:42:57;;;;;;;3.53;1.50;;;29.60;86.20;;;;;;5016314;28;20095;-70
2022/09/04 09:45:58;;;;;;;2.25;1.20;;;29.60;86.20;;;;;;5007426;28;20064;-70
2022/09/04 09:48:42;;;;;;;4.45;1.38;;;30.00;92.50;;;;;;5027082;28;20044;-71
2022/09/04 09:51:17;;;;;;;2.83;1.23;;;;;;;;;;5029835;28;20040;-70
2022/09/04 09:54:01;;;;;;;5.03;1.30;;;;;;;;;;5030050;28;20033;-70
2022/09/04 09:57:21;;;;;;;3.92;1.58;;;29.70;83.00;;;;;;5029921;28;20039;-70
2022/09/04 10:00:01;;;;;;;4.38;1.13;;;;;;;;;;4986366;28;20042;-70
2022/09/04 10:02:50;;;;;;;2.15;1.20;;;29.70;84.00;;;;;;4984903;28;20130;-70
2022/09/04 10:05:31;;;;;;;3.70;1.77;;;29.40;79.60;;;;;;5014229;28;20046;-70
2022/09/04 10:08:08;;;;;;;4.18;1.10;;;29.70;92.10;;;;;;5019017;28;20870;-71
2022/09/04 10:10:34;;;;;;;4.25;1.27;;;;;;;;;;5028898;28;20025;-71
2022/09/04 10:13:09;;;;;;;5.82;1.50;;;29.70;78.90;;;;;;5009772;28;20120;-71
2022/09/04 10:16:00;;;;;;;5.78;1.20;;;30.10;83.40;;;;;;5030448;28;20032;-72
2022/09/04 10:18:55;;;;;;;2.33;1.05;;;;;;;;;;5025033;28;20396;-72
2022/09/04 10:21:48;;;;;;;4.80;1.38;;;29.50;83.30;;;;;;5025785;28;20034;-73
2022/09/04 10:24:44;;;;;;;3.85;1.10;;;29.40;79.40;;;;;;5028736;28;20529;-72
2022/09/04 10:27:45;;;;;;;1.25;1.02;;;29.40;84.60;;;;;;5032459;28;20029;-70
2022/09/04 10:30:21;;;;;;;4.65;1.42;;;29.50;92.20;;;;;;5031422;28;20032;-70
2022/09/04 10:32:58;;;;;;;1.33;0.80;;;;;;;;;;5037901;28;20547;-71
2022/09/04 10:35:34;;;;;;;3.20;0.98;;;;;;;;;;5049838;28;20032;-76
2022/09/04 10:38:15;;;;;;;1.85;0.93;;;;;;;;;;5057769;28;20533;-73
2022/09/04 10:41:00;;;;;;;3.33;1.35;;;;;;;;;;5051953;28;20040;-74
2022/09/04 10:43:44;;;;;;;4.00;1.13;;;;;;;;;;5054145;28;20025;-73
2022/09/04 10:46:28;;;;;;;4.75;1.10;;;;;;;;;;5049930;28;20102;-72
2022/09/04 10:49:00;;;;;;;3.03;1.17;;;;;;;;;;5051634;28;20031;-73
2022/09/04 10:51:42;;;;;;;4.53;0.90;;;;;;;;;;5034672;28;20064;-72
2022/09/04 10:54:08;;;;;;;3.00;1.40;;;;;;;;;;5043039;28;20029;-73
2022/09/04 10:57:01;;;;;;;3.05;1.00;;;31.60;73.00;;;;;;5047667;28;20025;-72
2022/09/04 10:59:42;;;;;;;5.18;0.90;;;31.70;72.50;;;;;;5049569;28;20036;-74
2022/09/04 11:02:08;;;;;;;1.10;0.80;;;;;;;;;;5049964;28;20380;-71
2022/09/04 11:05:01;;;;;;;2.90;1.13;;;32.10;72.30;;;;;;5058666;28;20033;-71
2022/09/04 11:07:47;;;;;;;2.92;1.10;;;32.40;71.10;;;;;;5031709;28;20029;-70
2022/09/04 11:11:06;;;;;;;3.70;0.90;;;32.40;75.80;;;;;;5046072;28;20036;-70
2022/09/04 11:13:53;;;;;;;2.08;1.02;;;;;;;;;;4970561;28;20042;-70
2022/09/04 11:16:18;;;;;;;4.35;1.15;;;32.00;86.40;;;;;;5051563;28;20037;-70
2022/09/04 11:18:56;;;;;;;4.13;1.10;;;;;;;;;;5047561;28;20047;-73
2022/09/04 11:21:35;;;;;;;6.05;1.45;;;;;;;;;;5037929;28;20119;-75
2022/09/04 11:24:01;;;;;;;5.00;1.30;;;;;;;;;;5047979;28;20029;-70
2022/09/04 11:26:46;;;;;;;1.33;1.10;;;;;;;;;;5050881;28;20035;-71
2022/09/04 11:29:12;;;;;;;7.40;1.08;;;;;;;;;;5026076;28;20033;-75
2022/09/04 11:32:02;;;;;;;5.65;1.10;;;30.60;78.60;;;;;;5050564;28;20170;-70
2022/09/04 11:34:42;;;;;;;3.17;1.00;;;;;;;;;;5052428;28;20053;-71
2022/09/04 11:37:19;;;;;;;2.20;0.93;;;;;;;;;;5034262;28;20029;-71
2022/09/04 11:40:23;;;;;;;1.65;0.95;;;30.30;74.60;;;;;;5049987;28;20037;-71
2022/09/04 11:43:07;;;;;;;2.58;0.80;;;;;;;;;;5056756;28;20037;-71
2022/09/04 11:45:33;;;;;;;1.48;0.90;;;;;;;;;;5033826;28;20113;-71
2022/09/04 11:47:59;;;;;;;4.15;0.80;;;;;;;;;;5052213;28;20025;-72
2022/09/04 11:51:15;;;;;;;3.83;1.00;;;29.80;80.10;;;;;;5057884;28;20602;-70
2022/09/04 11:54:02;;;;;;;4.25;0.90;;;29.90;77.10;;;;;;5009570;28;20159;-70
2022/09/04 11:56:28;;;;;;;2.90;0.80;;;30.00;91.00;;;;;;5052585;28;20032;-71
2022/09/04 11:59:12;;;;;;;1.38;0.90;;;29.60;90.90;;;;;;5030066;28;20040;-71
2022/09/04 12:01:57;;;;;;;2.75;0.80;;;;;;;;;;5044352;28;20040;-71
2022/09/04 12:04:41;;;;;;;1.80;0.70;;;;;;;;;;5048911;28;20021;-72
2022/09/04 12:07:24;;;;;;;0.90;0.70;;;;;;;;;;5057346;28;20091;-76
2022/09/04 12:10:19;;;;;;;3.35;0.70;;;30.00;81.10;;;;;;5050842;28;20067;-72
2022/09/04 12:12:59;;;;;;;1.25;0.60;;;;;;;;;;5046270;28;20072;-71
2022/09/04 12:16:03;;;;;;;1.25;0.82;;;30.20;76.60;;;;;;5041075;28;20095;-72
2022/09/04 12:18:50;;;;;;;1.00;0.60;;;30.40;80.60;;;;;;5038676;28;20033;-75
2022/09/04 12:21:36;;;;;;;1.90;0.80;;;;;;;;;;5051009;28;20033;-72
2022/09/04 12:24:13;;;;;;;3.40;0.90;;;;;;;;;;5054700;28;20024;-70
2022/09/04 12:26:57;;;;;;;3.40;0.90;;;;;;;;;;5053204;28;20029;-72
2022/09/04 12:29:42;;;;;;;3.92;0.90;;;;;;;;;;5049658;28;20086;-71
2022/09/04 12:32:12;;;;;;;3.42;0.80;;;;;;;;;;5049635;28;20041;-72
2022/09/04 12:34:40;;;;;;;2.03;0.75;;;;;;;;;;5031031;28;20065;-74
2022/09/04 12:37:12;;;;;;;5.00;1.23;;;;;;;;;;5029880;28;20037;-72
2022/09/04 12:39:58;;;;;;;2.47;0.90;;;;;;;;;;5028652;28;20516;-72
2022/09/04 12:42:36;;;;;;;4.53;0.80;;;30.10;75.70;;;;;;5028994;28;20031;-72
2022/09/04 12:45:02;;;;;;;3.25;1.15;;;;;;;;;;5027392;28;20048;-73
2022/09/04 12:47:32;;;;;;;3.17;1.08;;;;;;;;;;5027924;28;20489;-72
2022/09/04 12:50:13;;;;;;;3.40;0.98;;;;;;;;;;5029536;28;20033;-75
2022/09/04 12:52:58;;;;;;;;;;;30.60;80.10;;;;;;5037842;28;20028;-72
2022/09/04 12:55:29;;;;;;;2.65;0.82;;;30.70;75.70;;;;;;5030045;28;20060;-72
2022/09/04 12:58:01;;;;;;;1.67;0.90;;;;;;;;;;5025556;28;20070;-72
2022/09/04 13:00:39;;;;;;;4.30;2.00;;;30.50;78.20;;;;;;5012938;28;20477;-73
2022/09/04 13:03:17;;;;;;;1.55;0.75;;;;;;;;;;5030434;28;20167;-71
2022/09/04 13:05:43;;;;;;;4.55;0.77;;;;;;;;;;5022510;28;20188;-70
2022/09/04 13:08:18;;;;;;;2.03;0.88;;;;;;;;;;5027824;28;20112;-70
2022/09/04 13:10:50;;;;;;;2.50;0.73;;;;;;;;;;5032139;28;20029;-71
2022/09/04 13:13:21;;;;;;;2.03;1.10;;;;;;;;;;5030717;28;20543;-69
2022/09/04 13:16:16;;;;;;;5.03;0.88;;;30.30;79.40;;;;;;5024084;28;20062;-69
2022/09/04 13:19:01;;;;;;;4.20;1.00;;;;;;;;;;5018264;28;20084;-69
2022/09/04 13:21:47;;;;;;;2.25;0.73;;;30.20;79.70;;;;;;5028750;28;20025;-70
2022/09/04 13:24:13;;;;;;;3.22;1.10;;;;;;;;;;5030469;28;20045;-69
2022/09/04 13:26:50;;;;;;;2.50;0.80;;;30.20;87.80;;;;;;5046131;28;20068;-68
2022/09/04 13:29:24;;;;;;;0.82;0.60;;;;;;;;;;5029942;28;20092;-69
2022/09/04 13:32:07;;;;;;;2.50;0.93;;;30.40;79.30;;;;;;5024953;28;20498;-68
2022/09/04 13:35:02;;;;;;;1.02;0.70;;;30.40;78.70;;;;;;5022991;28;20401;-70
2022/09/04 13:37:52;;;;;;;1.50;1.00;;;30.50;78.00;;;;;;5030680;28;20021;-69
2022/09/04 13:40:36;;;;;;;4.22;0.95;;;30.50;78.10;;;;;;5026049;28;20041;-68
2022/09/04 13:43:05;;;;;;;3.47;0.85;;;;;;;;;;5040791;28;20025;-70
2022/09/04 13:45:39;;;;;;;1.63;0.63;;;;;;;;;;5027196;28;20084;-69
2022/09/04 13:48:14;;;;;;;0.80;0.65;;;;;;;;;;5033368;28;20057;-69
2022/09/04 13:50:54;;;;;;;1.52;1.10;;;;;;;;;;5014426;28;20026;-75
2022/09/04 13:53:39;;;;;;;2.10;1.10;;;30.60;78.40;;;;;;5027725;28;20105;-75
2022/09/04 13:56:08;;;;;;;1.17;0.90;;;;;;;;;;5022411;28;20128;-68
2022/09/04 13:58:45;;;;;;;3.03;0.90;;;;;;;;;;5032068;28;20041;-69
2022/09/04 14:01:15;;;;;;;1.98;0.90;;;30.70;76.50;;;;;;5024193;28;20022;-70
2022/09/04 14:03:53;;;;;;;5.85;1.02;;;30.90;76.10;;;;;;5029110;28;20026;-70
2022/09/04 14:06:22;;;;;;;1.17;1.00;;;30.70;75.60;;;;;;5041935;28;20064;-69
2022/09/04 14:08:52;;;;;;;5.30;0.95;;;30.80;75.60;;;;;;5047400;28;20477;-70
2022/09/04 14:11:38;;;;;;;2.33;1.30;;;;;;;;;;5031772;28;20064;-69
2022/09/04 14:14:29;;;;;;;6.05;1.30;;;;;;;;;;5028883;28;20018;-69
2022/09/04 14:16:57;;;;;;;3.15;0.80;;;;;;;;;;4998555;28;20163;-70
2022/09/04 14:19:58;;;;;;;7.85;1.10;;;30.80;76.60;;;;;;5039862;28;20108;-69
2022/09/04 14:22:42;;;;;;;1.23;0.68;;;;;;;;;;5010197;28;20121;-70
2022/09/04 14:25:26;;;;;;;2.88;0.80;;;;;;;;;;5037761;28;20029;-69
2022/09/04 14:28:12;;;;;;;2.67;0.73;;;30.90;76.00;;;;;;5034364;28;20488;-70
2022/09/04 14:31:16;;;;;;;3.63;1.10;;;30.70;76.30;;;;;;5029473;28;20466;-69
2022/09/04 14:33:42;;;;;;;1.83;0.95;;;;;;;;;;5016892;28;20064;-69
2022/09/04 14:36:13;;;;;;;5.47;1.00;;;;;;;;;;5033335;28;20025;-69
2022/09/04 14:38:39;;;;;;;1.33;0.80;;;31.00;87.70;;;;;;5035293;28;21420;-68
2022/09/04 14:41:15;;;;;;;1.48;0.85;;;;;;;;;;5047556;28;20637;-69
2022/09/04 14:43:49;;;;;;;3.85;0.98;;;;;;;;;;5034959;28;20026;-69
2022/09/04 14:46:31;;;;;;;3.63;1.00;;;;;;;;;;5014369;28;20068;-69
2022/09/04 14:49:09;;;;;;;;;;;31.20;75.60;;;;;;5032987;28;20026;-69
2022/09/04 14:51:41;;;;;;;2.47;1.13;;;30.80;75.50;;;;;;5028259;28;19909;-70
2022/09/04 14:54:08;;;;;;;0.93;0.80;;;;;;;;;;5012919;28;21116;-69
2022/09/04 14:56:40;;;;;;;1.98;1.05;;;;;;;;;;5006572;28;20030;-69
2022/09/04 14:59:16;;;;;;;1.40;0.73;;;;;;;;;;5008972;28;20049;-69
2022/09/04 15:01:57;;;;;;;3.38;0.90;;;;;;;;;;5011540;28;20333;-69
2022/09/04 15:04:29;;;;;;;1.27;0.80;;;30.80;76.20;;;;;;5031165;28;20029;-69
2022/09/04 15:06:57;;;;;;;1.75;0.95;;;;;;;;;;5032965;28;20040;-69
2022/09/04 15:09:23;;;;;;;1.08;0.80;;;;;;;;;;5020025;28;20113;-70
2022/09/04 15:11:50;;;;;;;1.95;1.02;;;31.10;75.10;;;;;;5032110;28;20089;-70
2022/09/04 15:14:24;;;;;;;7.32;0.98;;;;;;;;;;5032474;28;20346;-69
2022/09/04 15:16:53;;;;;;;4.03;0.93;;;;;;;;;;5055875;28;20088;-69
2022/09/04 15:19:27;;;;;;;2.33;1.00;;;;;;;;;;5029834;28;20508;-68
2022/09/04 15:22:05;;;;;;;4.00;1.10;;;;;;;;;;5024059;28;20056;-69
2022/09/04 15:24:36;;;;;;;2.88;0.88;;;30.50;87.70;;;;;;5030963;28;20033;-69